Time;durP1;ratioP1;P1;durP2;ratioP2;P2;SDS_P1;SDS_P2;PMS_P1;PMS_P2;Temp;Humidity;BMP_temperature;BMP_pressure;BME280_temperature;BME280_humidity;BME280_pressure;Samples;Min_cycle;Max_cycle;Signal;HPM_P1;HPM_P2
2022/11/17 00:00:23;;;;;;;2.17;1.27;;;;;;;23.65;39.36;97847.34;5080513;28;20143;-57
2022/11/17 00:03:19;;;;;;;2.45;1.20;;;;;;;23.63;39.43;97833.81;5069593;28;20090;-57
2022/11/17 00:06:03;;;;;;;2.53;1.30;;;;;;;23.64;39.45;97840.97;5074646;28;20036;-61
2022/11/17 00:08:32;;;;;;;2.13;1.15;;;;;;;23.61;39.28;97839.84;5080159;28;20084;-61
2022/11/17 00:11:20;;;;;;;;;;;;;;;;;;;;;
2022/11/17 00:17:14;;;;;;;1.98;1.20;;;;;;;23.60;39.36;97823.50;5072537;28;20043;-57
2022/11/17 00:22:33;;;;;;;1.92;1.13;;;;;;;23.59;39.31;97800.38;5076045;28;20157;-56
2022/11/17 00:24:59;;;;;;;1.63;0.93;;;;;;;23.60;39.36;97798.38;5078299;28;20059;-59
2022/11/17 00:36:19;;;;;;;1.77;1.00;;;;;;;23.58;39.34;97787.66;5080240;28;20039;-56
2022/11/17 00:38:54;;;;;;;1.33;0.90;;;;;;;23.59;39.29;97782.84;5082221;28;20048;-60
2022/11/17 00:41:28;;;;;;;1.77;1.15;;;;;;;23.57;39.39;97768.53;5068904;28;20037;-60
2022/11/17 00:44:00;;;;;;;1.50;1.00;;;;;;;23.58;39.24;97770.91;5074051;28;20040;-56
2022/11/17 00:46:29;;;;;;;2.10;1.10;;;;;;;23.60;39.25;97782.44;5068058;28;20041;-60
2022/11/17 00:48:58;;;;;;;1.80;1.00;;;;;;;23.58;39.34;97787.66;5076570;28;20500;-60
2022/11/17 00:51:28;;;;;;;1.63;1.00;;;;;;;23.59;39.26;97788.44;5075103;28;20408;-60
2022/11/17 00:54:00;;;;;;;1.30;0.88;;;;;;;23.60;39.21;97781.63;5077973;28;20040;-59
2022/11/17 00:56:35;;;;;;;1.90;1.05;;;;;;;23.59;39.23;97783.63;5075830;28;20044;-56
2022/11/17 00:59:04;;;;;;;1.70;1.00;;;;;;;23.60;39.42;97790.81;5080017;28;20493;-59
2022/11/17 01:01:42;;;;;;;1.73;0.93;;;;;;;23.60;39.17;97790.00;5072175;28;20076;-59
2022/11/17 01:04:37;;;;;;;2.28;1.10;;;;;;;23.59;39.20;97794.81;5069141;28;20079;-56
2022/11/17 01:07:12;;;;;;;1.83;0.93;;;;;;;23.59;39.43;97780.84;5085888;28;20040;-61
2022/11/17 01:09:49;;;;;;;1.48;0.90;;;;;;;23.57;39.42;97783.25;5068587;28;20136;-56
2022/11/17 01:12:25;;;;;;;2.42;1.05;;;;;;;23.59;39.43;97783.63;5078545;28;20048;-56
2022/11/17 01:15:03;;;;;;;1.77;1.20;;;;;;;23.59;39.37;97810.75;5073428;28;20050;-56
2022/11/17 01:17:41;;;;;;;1.77;1.00;;;;;;;23.59;39.57;97799.59;5068717;28;20044;-60
2022/11/17 01:20:17;;;;;;;1.95;0.98;;;;;;;23.60;39.20;97790.00;5067650;28;20056;-60
2022/11/17 01:22:48;;;;;;;2.00;1.00;;;;;;;23.59;39.24;97805.19;5067943;28;20041;-57
2022/11/17 01:26:07;;;;;;;1.60;1.00;;;;;;;23.61;39.16;97813.94;5086762;28;20064;-60
2022/11/17 01:28:36;;;;;;;1.45;0.82;;;;;;;23.60;39.14;97790.00;5084095;28;20084;-56
2022/11/17 01:31:06;;;;;;;1.60;0.98;;;;;;;23.58;39.41;97784.88;5077785;28;20444;-56
2022/11/17 01:33:40;;;;;;;1.48;1.00;;;;;;;23.59;39.28;97786.44;5075357;28;20103;-61
2022/11/17 01:36:23;;;;;;;1.35;0.85;;;;;;;23.58;39.41;97804.41;5072676;28;20754;-57
2022/11/17 01:39:17;;;;;;;1.65;1.02;;;;;;;23.59;39.28;97788.44;5075335;28;20057;-57
2022/11/17 01:41:59;;;;;;;1.58;0.88;;;;;;;23.57;39.41;97774.09;5086351;28;20044;-59
2022/11/17 01:45:03;;;;;;;1.50;0.90;;;;;;;23.59;39.39;97783.63;5075984;28;20542;-59
2022/11/17 01:48:05;;;;;;;1.17;0.80;;;;;;;23.59;39.30;97788.44;5076524;28;20084;-56
2022/11/17 01:50:54;;;;;;;1.40;0.90;;;;;;;23.58;39.41;97781.28;5068537;28;20051;-56
2022/11/17 01:54:04;;;;;;;1.73;1.00;;;;;;;23.58;39.47;97787.66;5081297;28;20393;-60
2022/11/17 01:56:45;;;;;;;1.40;0.90;;;;;;;23.58;39.39;97792.44;5077823;28;20048;-56
2022/11/17 01:59:34;;;;;;;1.30;0.90;;;;;;;23.57;39.43;97805.59;5083349;28;20068;-56
2022/11/17 02:02:38;;;;;;;1.75;1.02;;;;;;;23.61;39.40;97817.50;5073427;28;20047;-60
2022/11/17 02:05:29;;;;;;;1.40;0.90;;;;;;;23.64;39.47;97831.81;5097837;28;20508;-57
2022/11/17 02:08:07;;;;;;;1.35;0.80;;;;;;;23.65;39.79;97838.97;5059976;28;20142;-56
2022/11/17 02:10:42;;;;;;;1.38;0.93;;;;;;;23.62;39.57;97857.38;5094489;28;20148;-56
2022/11/17 02:13:20;;;;;;;1.80;1.00;;;;;;;23.64;39.52;97860.50;5105559;28;20087;-60
2022/11/17 02:16:20;;;;;;;1.17;0.80;;;;;;;23.65;39.50;97883.63;5073242;28;20415;-56
2022/11/17 02:19:03;;;;;;;1.35;0.90;;;;;;;23.65;39.53;97880.81;5086752;28;20052;-60
2022/11/17 02:22:09;;;;;;;1.38;0.88;;;;;;;23.63;39.43;97853.34;5083453;28;20106;-60
2022/11/17 02:28:00;;;;;;;2.20;0.90;;;;;;;23.63;39.48;97861.72;5071173;28;20041;-59
2022/11/17 02:30:55;;;;;;;1.02;0.70;;;;;;;23.63;39.48;97866.53;5075749;28;20467;-56
2022/11/17 02:33:31;;;;;;;1.40;0.90;;;;;;;23.61;39.58;97858.59;5085036;28;20472;-56
2022/11/17 02:36:40;;;;;;;1.00;0.70;;;;;;;23.62;39.52;97857.38;5072792;28;20036;-60
2022/11/17 02:39:27;;;;;;;1.52;0.88;;;;;;;23.63;39.34;97856.16;5020287;28;20040;-60
2022/11/17 02:42:08;;;;;;;1.20;0.80;;;;;;;23.63;39.56;97858.94;5077042;28;20047;-56
2022/11/17 02:44:59;;;;;;;1.15;0.77;;;;;;;23.61;39.49;97858.59;5079771;28;20045;-56
2022/11/17 02:47:38;;;;;;;1.30;0.82;;;;;;;23.62;39.64;97865.75;5077853;28;20028;-60
2022/11/17 02:50:39;;;;;;;1.20;0.80;;;;;;;23.61;39.57;97855.81;5082406;28;20036;-57
2022/11/17 02:53:05;;;;;;;1.60;0.90;;;;;;;23.61;39.72;97851.00;5078864;28;20049;-61
2022/11/17 02:55:50;;;;;;;1.55;0.80;;;;;;;23.59;39.63;97838.69;5072049;28;20474;-60
2022/11/17 02:58:19;;;;;;;1.42;0.80;;;;;;;23.61;39.58;97839.06;5071617;28;20044;-56
2022/11/17 03:01:09;;;;;;;1.10;0.70;;;;;;;23.58;39.82;97834.31;5083004;28;20040;-59
2022/11/17 03:04:20;;;;;;;1.13;0.85;;;;;;;23.62;39.70;97846.19;5073071;28;20052;-56
2022/11/17 03:07:12;;;;;;;1.25;0.90;;;;;;;23.59;39.82;97855.41;5065053;28;20139;-55
2022/11/17 03:10:02;;;;;;;0.88;0.70;;;;;;;23.60;39.76;97863.38;5072411;28;20052;-59
2022/11/17 03:12:46;;;;;;;1.17;0.80;;;;;;;23.59;39.72;97872.16;5074790;28;20394;-56
2022/11/17 03:15:52;;;;;;;1.35;0.80;;;;;;;23.58;39.88;97876.97;5073540;28;20040;-59
2022/11/17 03:21:45;;;;;;;1.20;0.70;;;;;;;23.58;39.82;97865.81;5064750;28;20056;-59
2022/11/17 03:24:44;;;;;;;1.33;0.80;;;;;;;23.58;39.80;97851.84;5081364;28;20127;-59
2022/11/17 03:27:44;;;;;;;1.30;0.80;;;;;;;23.58;39.80;97840.69;5085108;28;20062;-56
2022/11/17 03:30:30;;;;;;;1.63;0.90;;;;;;;23.57;39.79;97825.13;5072241;28;20093;-60
2022/11/17 03:33:24;;;;;;;1.00;0.80;;;;;;;23.57;40.02;97825.13;5078954;28;20044;-56
2022/11/17 03:36:07;;;;;;;1.17;0.80;;;;;;;23.57;39.80;97802.03;5075166;28;20053;-56
2022/11/17 03:38:49;;;;;;;1.02;0.70;;;;;;;23.57;39.73;97815.97;5079100;28;20044;-59
2022/11/17 03:41:31;;;;;;;1.10;0.70;;;;;;;23.56;39.78;97804.03;5071098;28;20420;-57
2022/11/17 03:44:10;;;;;;;1.30;0.70;;;;;;;23.57;39.73;97794.44;5069958;28;20048;-60
2022/11/17 03:46:58;;;;;;;1.23;0.80;;;;;;;23.57;39.83;97794.44;5070593;28;20512;-56
2022/11/17 03:49:59;;;;;;;1.10;0.70;;;;;;;23.57;39.78;97802.03;5090287;28;20415;-56
2022/11/17 03:52:35;;;;;;;1.40;0.80;;;;;;;23.56;39.54;97795.66;5088358;28;20060;-57
2022/11/17 03:55:07;;;;;;;0.95;0.65;;;;;;;23.53;39.61;97793.75;5079267;28;20500;-56
2022/11/17 03:57:43;;;;;;;1.40;0.90;;;;;;;23.57;39.74;97797.22;5082246;28;20072;-56
2022/11/17 04:00:38;;;;;;;1.25;0.80;;;;;;;23.56;39.78;97806.03;5085595;28;20046;-56
2022/11/17 04:03:07;;;;;;;1.20;0.80;;;;;;;23.57;39.71;97794.44;5068897;28;20048;-60
2022/11/17 04:05:51;;;;;;;0.82;0.65;;;;;;;23.56;39.83;97809.59;5083645;28;20036;-56
2022/11/17 04:08:24;;;;;;;0.90;0.65;;;;;;;23.59;39.97;97816.34;5081243;28;20135;-59
2022/11/17 04:16:58;;;;;;;1.23;0.60;;;;;;;23.64;39.63;97848.56;5072012;28;20238;-60
2022/11/17 04:19:34;;;;;;;1.13;0.80;;;;;;;23.60;39.61;97841.06;5084661;28;20039;-56
2022/11/17 04:22:11;;;;;;;0.80;0.65;;;;;;;23.62;39.71;97857.38;5113081;28;20494;-56
2022/11/17 04:25:00;;;;;;;1.10;0.65;;;;;;;23.60;39.74;97863.38;5096689;28;20052;-56
2022/11/17 04:30:27;;;;;;;1.02;0.70;;;;;;;23.60;39.74;97857.81;5075502;28;20046;-59
2022/11/17 04:33:00;;;;;;;0.90;0.57;;;;;;;23.58;39.88;97843.47;5071673;28;20036;-56
2022/11/17 04:35:36;;;;;;;1.50;0.80;;;;;;;23.59;39.67;97839.47;5069244;28;20496;-56
2022/11/17 04:38:18;;;;;;;0.98;0.70;;;;;;;23.60;39.80;97835.47;5075648;28;20431;-59
2022/11/17 04:44:02;;;;;;;0.70;0.60;;;;;;;23.58;39.81;97835.09;5069944;28;20140;-59
2022/11/17 04:46:47;;;;;;;1.25;0.70;;;;;;;23.58;39.97;97829.53;5089570;28;20040;-56
2022/11/17 04:49:34;;;;;;;1.10;0.70;;;;;;;23.57;39.96;97836.28;5075578;28;20051;-56
2022/11/17 04:52:19;;;;;;;0.73;0.40;;;;;;;23.57;39.88;97829.94;5070817;28;20060;-57
2022/11/17 04:54:48;;;;;;;0.82;0.50;;;;;;;23.57;39.82;97827.91;5067790;28;20132;-59
2022/11/17 04:57:27;;;;;;;0.85;0.57;;;;;;;23.58;39.95;97821.16;5075201;28;20499;-60
2022/11/17 05:00:04;;;;;;;0.80;0.60;;;;;;;23.58;39.90;97821.16;5071604;28;20045;-60
2022/11/17 05:02:36;;;;;;;1.15;0.73;;;;;;;23.57;39.67;97816.75;5068448;28;20048;-56
2022/11/17 05:08:10;;;;;;;0.77;0.52;;;;;;;23.59;39.77;97821.94;5079305;28;20057;-56
2022/11/17 05:14:15;;;;;;;0.93;0.60;;;;;;;23.59;40.16;97831.09;5084210;28;20531;-57
2022/11/17 05:17:11;;;;;;;0.63;0.47;;;;;;;23.58;39.91;97843.47;5108957;28;20054;-57
2022/11/17 05:19:53;;;;;;;1.00;0.70;;;;;;;23.56;40.04;97845.88;5080842;28;20059;-57
2022/11/17 05:25:20;;;;;;;0.90;0.60;;;;;;;23.57;39.91;97839.09;5079634;28;20420;-57
2022/11/17 05:27:59;;;;;;;;;;;;;;;;;;;;;
2022/11/17 05:30:41;;;;;;;1.05;0.65;;;;;;;23.56;40.01;97840.31;5079578;28;20040;-60
2022/11/17 05:33:13;;;;;;;0.65;0.55;;;;;;;23.56;40.02;97837.50;5073724;28;20051;-57
2022/11/17 05:35:46;;;;;;;1.02;0.60;;;;;;;23.55;40.07;97835.94;5092613;28;20059;-57
2022/11/17 05:38:26;;;;;;;1.25;0.75;;;;;;;23.57;40.18;97844.66;5076601;28;20044;-61
2022/11/17 05:41:09;;;;;;;0.90;0.60;;;;;;;23.55;39.92;97833.16;5079585;28;20124;-61
2022/11/17 05:43:45;;;;;;;0.82;0.57;;;;;;;23.54;40.26;97837.16;5078458;28;20079;-61
2022/11/17 05:46:23;;;;;;;1.08;0.65;;;;;;;23.53;39.96;97835.59;5071773;28;20048;-59
2022/11/17 05:48:57;;;;;;;0.85;0.45;;;;;;;23.56;39.78;97826.34;5074020;28;20048;-55
2022/11/17 05:51:42;;;;;;;0.70;0.55;;;;;;;23.55;39.98;97827.56;5085622;28;20126;-59
2022/11/17 05:54:36;;;;;;;0.80;0.60;;;;;;;23.55;39.92;97843.53;5094399;28;20076;-56
2022/11/17 05:57:40;;;;;;;0.88;0.60;;;;;;;23.56;39.98;97842.31;5093446;28;20048;-55
2022/11/17 06:00:09;;;;;;;1.25;0.80;;;;;;;23.57;40.01;97843.88;5110387;28;20039;-59
2022/11/17 06:03:07;;;;;;;1.40;0.60;;;;;;;23.59;40.01;97836.66;5105479;28;20046;-56
2022/11/17 06:05:51;;;;;;;1.00;0.50;;;;;;;23.61;39.89;97875.34;5098980;28;20408;-60
2022/11/17 06:08:39;;;;;;;;;;;;;;;;;;;;;
2022/11/17 06:11:15;;;;;;;0.80;0.50;;;;;;;23.64;39.87;97842.97;5102471;28;20051;-56
2022/11/17 06:13:44;;;;;;;0.75;0.55;;;;;;;23.63;39.89;97850.56;5103873;28;20083;-60
2022/11/17 06:16:36;;;;;;;1.05;0.60;;;;;;;23.65;39.88;97841.75;5096674;28;20588;-56
2022/11/17 06:19:25;;;;;;;0.85;0.60;;;;;;;23.68;39.85;97847.28;5099733;28;20032;-56
2022/11/17 06:22:09;;;;;;;0.75;0.52;;;;;;;23.70;39.75;97839.25;5091644;28;20048;-56
2022/11/17 06:24:52;;;;;;;0.60;0.50;;;;;;;23.72;39.89;97859.16;5093822;28;20048;-60
2022/11/17 06:27:28;;;;;;;1.10;0.70;;;;;;;23.74;39.74;97881.06;5099163;28;20046;-60
2022/11/17 06:30:26;;;;;;;0.80;0.60;;;;;;;23.74;39.74;97872.69;5103190;28;20036;-60
2022/11/17 06:32:57;;;;;;;1.05;0.60;;;;;;;23.72;39.72;97895.44;5088075;28;20530;-56
2022/11/17 06:35:34;;;;;;;;;;;;;;;;;;;;;
2022/11/17 06:38:06;;;;;;;1.00;0.63;;;;;;;23.74;39.86;97872.69;5103507;28;20036;-56
2022/11/17 06:41:14;;;;;;;1.53;0.57;;;;;;;23.76;40.13;97896.16;5091497;28;20123;-57
2022/11/17 06:43:55;;;;;;;27.25;1.85;;;;;;;23.79;40.22;97880.53;5089954;28;20036;-58
2022/11/17 06:46:36;;;;;;;11.77;1.20;;;;;;;23.79;40.34;97881.34;5105062;28;20097;-59
2022/11/17 06:49:28;;;;;;;16.17;1.45;;;;;;;23.82;40.01;97885.25;5110541;28;20047;-60
2022/11/17 06:52:23;;;;;;;9.25;1.60;;;;;;;23.80;40.05;97873.75;5095913;28;20023;-56
2022/11/17 06:55:09;;;;;;;13.57;1.42;;;;;;;23.80;40.34;97882.91;5105180;28;20184;-56
2022/11/17 06:57:55;;;;;;;18.17;1.48;;;;;;;23.79;40.24;97869.34;5090843;28;20044;-55
2022/11/17 07:00:51;;;;;;;7.28;1.17;;;;;;;23.78;40.18;97859.41;5103476;28;20415;-59
2022/11/17 07:03:35;;;;;;;9.82;1.17;;;;;;;23.77;40.22;97871.81;5095477;28;20052;-59
2022/11/17 07:06:21;;;;;;;12.80;1.10;;;;;;;23.81;40.13;97892.84;5092395;28;20052;-55
2022/11/17 07:08:47;;;;;;;8.25;1.30;;;;;;;23.79;40.30;97875.75;5098626;28;20450;-59
2022/11/17 07:11:50;;;;;;;14.60;1.20;;;;;;;23.79;40.32;97870.16;5097698;28;20492;-60
2022/11/17 07:14:25;;;;;;;5.95;0.88;;;;;;;23.80;40.24;97899.66;5101871;28;20051;-56
2022/11/17 07:17:17;;;;;;;6.53;1.00;;;;;;;23.76;39.98;97870.22;5108853;28;20047;-60
2022/11/17 07:20:03;;;;;;;4.40;1.05;;;;;;;23.80;40.21;97887.72;5096972;28;20036;-57
2022/11/17 07:22:48;;;;;;;6.93;1.17;;;;;;;23.79;40.13;97891.69;5093943;28;20633;-56
2022/11/17 07:25:24;;;;;;;5.35;1.00;;;;;;;23.78;40.04;97879.75;5094127;28;20052;-56
2022/11/17 07:28:35;;;;;;;6.72;1.00;;;;;;;23.81;39.99;97876.09;5101342;28;20044;-60
2022/11/17 07:31:37;;;;;;;5.35;1.10;;;;;;;23.81;39.99;97884.47;5043663;28;20048;-56
2022/11/17 07:34:51;;;;;;;3.10;0.95;;;;;;;23.81;40.18;97884.47;5035298;28;20051;-59
2022/11/17 07:40:41;;;;;;;5.45;0.90;;;;;;;23.78;40.20;97870.56;5040502;28;20055;-61
2022/11/17 07:43:29;;;;;;;5.22;1.40;;;;;;;23.81;40.31;97872.53;5042719;28;20144;-56
2022/11/17 07:46:29;;;;;;;5.63;0.90;;;;;;;23.81;40.45;97872.53;5023215;28;20045;-60
2022/11/17 07:49:28;;;;;;;1.55;0.77;;;;;;;23.82;40.64;97885.25;4986760;28;20190;-67
2022/11/17 07:52:21;;;;;;;2.35;0.82;;;;;;;23.82;40.49;97879.69;4987629;28;20493;-59
2022/11/17 20:12:55;;;;;;;3.60;1.60;;;;;;;23.52;46.14;97743.94;5172083;27;20455;-61
2022/11/17 20:15:20;;;;;;;4.07;1.30;;;;;;;23.83;45.00;97763.97;5163517;27;20129;-61
2022/11/17 20:17:45;;;;;;;7.95;1.38;;;;;;;24.14;44.36;97765.19;5161285;27;20046;-66
2022/11/17 20:20:11;;;;;;;3.75;1.15;;;;;;;24.35;43.77;97765.91;5156956;27;20124;-62
2022/11/17 20:22:36;;;;;;;4.30;1.30;;;;;;;24.51;43.36;97760.31;5159190;27;20039;-61
2022/11/17 20:25:04;;;;;;;9.82;1.25;;;;;;;24.51;43.22;97754.72;5158611;27;20050;-66
2022/11/17 20:27:31;;;;;;;6.38;1.52;;;;;;;24.55;42.86;97740.63;5164776;27;20125;-66
2022/11/17 20:29:56;;;;;;;5.13;1.02;;;;;;;24.56;42.91;97742.19;5126834;27;20085;-66
2022/11/17 20:32:22;;;;;;;4.53;1.20;;;;;;;24.61;42.67;97759.22;5162268;27;20522;-61
2022/11/17 20:34:47;;;;;;;5.28;1.00;;;;;;;24.61;42.52;97755.66;5165669;27;20058;-66
2022/11/17 20:37:13;;;;;;;5.07;1.20;;;;;;;24.60;42.23;97732.50;5165695;27;20095;-66
2022/11/17 20:39:38;;;;;;;5.68;1.08;;;;;;;24.59;42.51;97742.13;5153030;27;20388;-61
2022/11/17 20:42:04;;;;;;;2.28;0.80;;;;;;;24.62;42.06;97741.22;5155063;27;20479;-61
2022/11/17 20:44:30;;;;;;;2.95;0.90;;;;;;;24.60;41.92;97738.09;5151769;27;20054;-64
2022/11/17 20:46:56;;;;;;;3.28;1.00;;;;;;;24.61;42.09;97758.44;5157172;27;20419;-66
2022/11/17 20:49:22;;;;;;;3.38;1.13;;;;;;;24.59;41.99;97747.72;5155324;27;20494;-65
2022/11/17 20:51:48;;;;;;;3.00;0.80;;;;;;;24.60;41.90;97751.28;5161473;27;20439;-61
2022/11/17 20:54:14;;;;;;;1.45;0.75;;;;;;;24.56;41.77;97758.97;5165264;27;20030;-61
2022/11/17 20:56:41;;;;;;;1.90;0.90;;;;;;;24.56;41.96;97754.16;5157399;27;20051;-61
2022/11/17 20:59:07;;;;;;;4.15;0.75;;;;;;;24.54;41.64;97739.84;5160650;27;20034;-64
2022/11/17 21:01:33;;;;;;;1.40;0.80;;;;;;;24.52;41.56;97744.31;5157858;27;20508;-64
2022/11/17 21:03:58;;;;;;;2.40;0.70;;;;;;;24.49;41.83;97751.56;5165825;27;20042;-65
2022/11/17 21:06:24;;;;;;;3.35;0.80;;;;;;;24.51;41.72;97767.91;5166373;27;20410;-64
2022/11/17 21:08:50;;;;;;;1.58;0.80;;;;;;;24.48;41.94;97763.97;5157723;27;20118;-60
2022/11/17 21:14:04;;;;;;;1.70;0.70;;;;;;;24.47;41.74;97783.97;5160232;27;20548;-60
2022/11/17 21:16:30;;;;;;;1.88;0.70;;;;;;;24.45;41.47;97778.84;5139704;27;20103;-65
2022/11/17 21:18:55;;;;;;;1.67;0.68;;;;;;;24.42;41.89;97774.88;5166670;27;20052;-60
2022/11/17 21:21:21;;;;;;;1.08;0.52;;;;;;;24.42;41.71;97755.31;5153617;27;20410;-64
2022/11/17 21:23:46;;;;;;;1.52;0.80;;;;;;;24.41;41.58;97750.19;5154040;27;20163;-60
2022/11/17 21:26:15;;;;;;;1.65;0.73;;;;;;;24.40;41.50;97746.59;5148908;27;20035;-64
2022/11/17 21:28:41;;;;;;;1.15;0.70;;;;;;;24.39;41.82;97733.84;5149308;27;20050;-64
2022/11/17 21:31:15;;;;;;;1.90;0.90;;;;;;;24.38;41.85;97732.28;5143319;27;20055;-61
2022/11/17 21:33:41;;;;;;;2.22;0.88;;;;;;;24.38;41.56;97745.47;5144874;27;20043;-64
2022/11/17 21:36:12;;;;;;;1.80;0.50;;;;;;;24.36;41.65;97751.53;5130843;27;20038;-61
2022/11/17 21:38:38;;;;;;;0.80;0.50;;;;;;;24.35;41.60;97752.72;5129402;27;20480;-64
2022/11/17 21:41:05;;;;;;;1.63;0.43;;;;;;;24.34;41.59;97750.38;5152034;27;20557;-61
2022/11/17 21:43:34;;;;;;;0.88;0.52;;;;;;;24.32;41.67;97739.59;5150144;27;20050;-65
2022/11/17 21:46:05;;;;;;;0.70;0.47;;;;;;;24.31;41.51;97732.44;5152407;27;20506;-65
2022/11/17 21:48:31;;;;;;;1.02;0.50;;;;;;;24.32;41.39;97750.00;5150272;27;20134;-61
2022/11/17 21:50:56;;;;;;;1.70;0.70;;;;;;;24.29;41.56;97762.03;5152654;27;20129;-65
2022/11/17 21:53:22;;;;;;;1.25;0.50;;;;;;;24.29;41.41;97756.44;5149617;27;20035;-66
2022/11/17 21:55:47;;;;;;;0.77;0.50;;;;;;;24.30;41.52;97758.03;5147369;27;20047;-66
2022/11/17 21:58:13;;;;;;;0.70;0.50;;;;;;;24.28;41.36;97780.03;5137345;27;20046;-65
2022/11/17 22:00:39;;;;;;;1.02;0.57;;;;;;;24.27;41.36;97784.84;5145055;27;20051;-61
2022/11/17 22:03:04;;;;;;;1.83;0.70;;;;;;;24.26;41.44;97793.66;5149921;27;20035;-61
2022/11/17 22:05:30;;;;;;;0.77;0.40;;;;;;;24.24;41.41;97790.53;5133779;27;20518;-61
2022/11/17 22:07:55;;;;;;;1.02;0.50;;;;;;;24.25;41.29;97790.09;5145630;27;20043;-64
2022/11/17 22:10:21;;;;;;;1.00;0.50;;;;;;;24.25;41.19;97792.88;5147609;27;20183;-65
2022/11/17 22:12:46;;;;;;;0.40;0.30;;;;;;;24.25;41.25;97787.28;5144809;27;20042;-64
2022/11/17 22:15:12;;;;;;;0.73;0.40;;;;;;;24.22;41.39;97773.41;5139761;27;20059;-61
2022/11/17 22:17:37;;;;;;;0.43;0.30;;;;;;;24.25;41.20;97772.53;5140365;27;20502;-65
2022/11/17 22:20:03;;;;;;;0.95;0.45;;;;;;;24.28;41.13;97777.22;5123854;28;20390;-64
2022/11/17 22:22:28;;;;;;;0.88;0.50;;;;;;;24.29;41.14;97767.63;5143915;27;20043;-61
2022/11/17 22:24:54;;;;;;;0.47;0.35;;;;;;;24.28;41.31;97761.25;5129690;27;20039;-65
2022/11/17 22:27:21;;;;;;;1.55;0.40;;;;;;;24.29;40.93;97771.22;5136116;27;20043;-61
2022/11/17 22:29:46;;;;;;;1.05;0.43;;;;;;;24.30;40.91;97769.22;5133704;27;20046;-62
2022/11/17 22:32:12;;;;;;;0.88;0.63;;;;;;;24.29;40.96;97778.81;5137150;27;20035;-66
2022/11/17 22:34:37;;;;;;;0.98;0.60;;;;;;;24.28;41.05;97766.06;5139233;27;20047;-62
2022/11/17 22:37:03;;;;;;;0.80;0.40;;;;;;;24.24;40.83;97766.16;5141129;27;20121;-67
2022/11/17 22:39:28;;;;;;;0.60;0.40;;;;;;;24.26;40.92;97765.72;5140250;27;20080;-66
2022/11/17 22:41:53;;;;;;;0.82;0.50;;;;;;;24.26;40.78;97766.50;5135035;27;20410;-67
2022/11/17 22:44:19;;;;;;;0.40;0.38;;;;;;;24.24;40.66;97776.56;5135100;27;20098;-62
2022/11/17 22:46:45;;;;;;;0.70;0.43;;;;;;;24.24;40.82;97780.13;5140875;27;20050;-62
2022/11/17 22:49:11;;;;;;;0.65;0.40;;;;;;;24.23;40.62;97781.34;5142288;27;20375;-65
2022/11/17 22:54:20;;;;;;;0.68;0.40;;;;;;;24.23;40.57;97784.16;5148017;27;20069;-62
2022/11/17 22:56:46;;;;;;;0.43;0.30;;;;;;;24.22;40.64;97790.97;5150651;27;20034;-66
2022/11/17 22:59:11;;;;;;;0.95;0.50;;;;;;;24.22;40.76;97795.75;5142672;27;20055;-65
2022/11/17 23:01:37;;;;;;;0.40;0.40;;;;;;;24.22;40.74;97795.75;5140684;27;20039;-62
2022/11/17 23:04:02;;;;;;;0.70;0.40;;;;;;;24.19;40.74;97785.47;5119704;28;20531;-66
2022/11/17 23:06:28;;;;;;;0.40;0.40;;;;;;;24.19;40.65;97794.63;5145715;27;20050;-62
2022/11/17 23:08:55;;;;;;;0.38;0.30;;;;;;;24.20;40.67;97801.00;5149358;27;20039;-66
2022/11/17 23:11:21;;;;;;;0.55;0.38;;;;;;;24.19;40.65;97796.63;5151352;27;20042;-61
2022/11/17 23:13:46;;;;;;;0.77;0.40;;;;;;;24.19;40.49;97799.44;5137897;27;20046;-62
2022/11/17 23:16:12;;;;;;;1.10;0.45;;;;;;;24.17;40.47;97786.69;5135403;27;20043;-62
2022/11/17 23:18:37;;;;;;;0.30;0.30;;;;;;;24.16;40.28;97784.34;5144263;27;20087;-62
2022/11/17 23:21:05;;;;;;;0.65;0.40;;;;;;;24.17;40.46;97795.06;5147954;27;20064;-61
2022/11/17 23:23:38;;;;;;;0.35;0.32;;;;;;;24.16;40.55;97796.28;5140893;27;20499;-61
2022/11/17 23:26:05;;;;;;;0.30;0.30;;;;;;;24.17;40.62;97802.66;5132459;27;20397;-65
2022/11/17 23:28:31;;;;;;;0.68;0.30;;;;;;;24.16;40.30;97807.47;5140903;27;20189;-61
2022/11/17 23:31:00;;;;;;;0.50;0.30;;;;;;;24.15;40.52;97808.69;5140150;27;20058;-65
2022/11/17 23:33:35;;;;;;;0.73;0.45;;;;;;;24.13;40.25;97811.13;5142092;27;20122;-65
2022/11/17 23:36:01;;;;;;;0.45;0.38;;;;;;;24.15;40.55;97808.69;5140885;27;20133;-61
2022/11/17 23:38:29;;;;;;;1.00;0.50;;;;;;;24.15;40.23;97813.50;5139903;27;20490;-61
2022/11/17 23:41:00;;;;;;;0.30;0.30;;;;;;;24.13;40.36;97808.31;5144739;27;20149;-62
2022/11/17 23:43:26;;;;;;;0.45;0.30;;;;;;;24.14;40.27;97809.09;5148470;27;20031;-61
2022/11/17 23:45:51;;;;;;;0.68;0.32;;;;;;;24.14;40.32;97812.69;5146548;27;20133;-65
2022/11/17 23:48:17;;;;;;;0.65;0.40;;;;;;;24.11;40.36;97813.56;5119649;28;20493;-62
2022/11/17 23:50:42;;;;;;;0.52;0.22;;;;;;;24.13;40.28;97829.88;5147570;27;21206;-66
2022/11/17 23:53:07;;;;;;;0.30;0.20;;;;;;;24.12;40.37;97826.31;5142837;27;20099;-65
2022/11/17 23:55:33;;;;;;;0.30;0.30;;;;;;;24.13;40.38;97839.03;5130312;27;20137;-66
2022/11/17 23:57:58;;;;;;;0.73;0.40;;;;;;;24.12;40.30;97833.91;5135459;27;20074;-62
